sensor_id;sensor_type;location;lat;lon;timestamp;temperature;humidity
38798;SHT11;24546;52.240;16.826;2022-12-29T00:01:15;7.80;99.90
38798;SHT11;24546;52.240;16.826;2022-12-29T00:06:16;7.80;99.90
38798;SHT11;24546;52.240;16.826;2022-12-29T00:11:23;7.80;99.90
38798;SHT11;24546;52.240;16.826;2022-12-29T00:16:24;7.70;99.90
38798;SHT11;24546;52.240;16.826;2022-12-29T00:21:25;7.50;99.90
38798;SHT11;24546;52.240;16.826;2022-12-29T00:27:09;7.80;99.90
38798;SHT11;24546;52.240;16.826;2022-12-29T00:32:27;7.60;99.90
38798;SHT11;24546;52.240;16.826;2022-12-29T00:37:47;7.80;99.90
38798;SHT11;24546;52.240;16.826;2022-12-29T00:43:08;7.90;99.90
38798;SHT11;24546;52.240;16.826;2022-12-29T00:48:27;7.80;99.90
38798;SHT11;24546;52.240;16.826;2022-12-29T00:53:47;7.80;99.90
38798;SHT11;24546;52.240;16.826;2022-12-29T00:58:48;7.70;99.90
38798;SHT11;24546;52.240;16.826;2022-12-29T01:03:49;7.70;99.90
38798;SHT11;24546;52.240;16.826;2022-12-29T01:08:50;7.60;99.90
38798;SHT11;24546;52.240;16.826;2022-12-29T01:14:11;7.70;99.90
38798;SHT11;24546;52.240;16.826;2022-12-29T01:19:13;7.80;99.90
38798;SHT11;24546;52.240;16.826;2022-12-29T01:24:16;7.80;99.90
38798;SHT11;24546;52.240;16.826;2022-12-29T01:29:17;7.80;99.90
38798;SHT11;24546;52.240;16.826;2022-12-29T01:34:19;7.60;99.90
38798;SHT11;24546;52.240;16.826;2022-12-29T01:39:22;8.00;99.90
38798;SHT11;24546;52.240;16.826;2022-12-29T01:49:45;8.00;99.90
38798;SHT11;24546;52.240;16.826;2022-12-29T01:54:50;8.00;99.90
38798;SHT11;24546;52.240;16.826;2022-12-29T02:00:00;8.10;99.90
38798;SHT11;24546;52.240;16.826;2022-12-29T02:05:40;8.20;99.90
38798;SHT11;24546;52.240;16.826;2022-12-29T02:10:47;8.20;99.90
38798;SHT11;24546;52.240;16.826;2022-12-29T02:26:58;8.40;99.90
38798;SHT11;24546;52.240;16.826;2022-12-29T02:48:16;8.20;99.90
38798;SHT11;24546;52.240;16.826;2022-12-29T02:53:21;8.20;99.90
38798;SHT11;24546;52.240;16.826;2022-12-29T02:58:44;8.10;99.90
38798;SHT11;24546;52.240;16.826;2022-12-29T03:14:36;7.80;99.90
38798;SHT11;24546;52.240;16.826;2022-12-29T03:20:04;7.80;99.90
38798;SHT11;24546;52.240;16.826;2022-12-29T03:25:17;8.00;99.90
38798;SHT11;24546;52.240;16.826;2022-12-29T03:30:20;8.00;99.90
38798;SHT11;24546;52.240;16.826;2022-12-29T03:35:27;8.10;99.90
38798;SHT11;24546;52.240;16.826;2022-12-29T03:40:32;8.20;99.90
38798;SHT11;24546;52.240;16.826;2022-12-29T03:45:35;8.10;99.90
38798;SHT11;24546;52.240;16.826;2022-12-29T03:50:36;8.00;99.90
38798;SHT11;24546;52.240;16.826;2022-12-29T03:55:37;8.10;99.90
38798;SHT11;24546;52.240;16.826;2022-12-29T04:00:39;8.20;99.90
38798;SHT11;24546;52.240;16.826;2022-12-29T04:05:41;8.30;99.90
38798;SHT11;24546;52.240;16.826;2022-12-29T04:10:42;8.30;99.90
38798;SHT11;24546;52.240;16.826;2022-12-29T04:15:43;8.40;99.90
38798;SHT11;24546;52.240;16.826;2022-12-29T04:20:48;8.30;99.90
38798;SHT11;24546;52.240;16.826;2022-12-29T04:26:05;8.30;99.90
38798;SHT11;24546;52.240;16.826;2022-12-29T04:31:16;8.30;99.90
38798;SHT11;24546;52.240;16.826;2022-12-29T04:36:19;8.20;99.90
38798;SHT11;24546;52.240;16.826;2022-12-29T04:41:20;8.20;99.90
38798;SHT11;24546;52.240;16.826;2022-12-29T04:46:23;8.20;99.90
38798;SHT11;24546;52.240;16.826;2022-12-29T04:51:36;8.20;99.90
38798;SHT11;24546;52.240;16.826;2022-12-29T04:56:37;8.20;99.90
38798;SHT11;24546;52.240;16.826;2022-12-29T05:01:38;8.30;99.90
38798;SHT11;24546;52.240;16.826;2022-12-29T05:06:40;8.10;99.90
38798;SHT11;24546;52.240;16.826;2022-12-29T05:11:42;8.10;99.90
38798;SHT11;24546;52.240;16.826;2022-12-29T05:16:44;8.30;99.90
38798;SHT11;24546;52.240;16.826;2022-12-29T05:21:45;8.40;99.90
38798;SHT11;24546;52.240;16.826;2022-12-29T05:26:46;8.40;99.90
38798;SHT11;24546;52.240;16.826;2022-12-29T05:32:16;8.40;99.90
38798;SHT11;24546;52.240;16.826;2022-12-29T05:37:18;8.40;99.90
38798;SHT11;24546;52.240;16.826;2022-12-29T05:42:19;8.30;99.90
38798;SHT11;24546;52.240;16.826;2022-12-29T05:47:33;8.20;99.90
38798;SHT11;24546;52.240;16.826;2022-12-29T05:52:58;8.30;99.90
38798;SHT11;24546;52.240;16.826;2022-12-29T05:57:59;8.30;99.90
38798;SHT11;24546;52.240;16.826;2022-12-29T06:03:00;8.00;99.90
38798;SHT11;24546;52.240;16.826;2022-12-29T06:08:02;8.30;99.90
38798;SHT11;24546;52.240;16.826;2022-12-29T06:13:04;8.20;99.90
38798;SHT11;24546;52.240;16.826;2022-12-29T06:18:15;8.30;99.90
38798;SHT11;24546;52.240;16.826;2022-12-29T06:23:18;8.50;99.90
38798;SHT11;24546;52.240;16.826;2022-12-29T06:28:19;8.60;99.90
38798;SHT11;24546;52.240;16.826;2022-12-29T06:33:21;8.70;99.90
38798;SHT11;24546;52.240;16.826;2022-12-29T06:38:22;8.70;99.90
38798;SHT11;24546;52.240;16.826;2022-12-29T06:43:24;8.80;99.90
38798;SHT11;24546;52.240;16.826;2022-12-29T06:48:44;8.80;99.90
38798;SHT11;24546;52.240;16.826;2022-12-29T06:53:45;8.80;99.90
38798;SHT11;24546;52.240;16.826;2022-12-29T06:58:46;8.90;99.90
38798;SHT11;24546;52.240;16.826;2022-12-29T07:03:47;8.90;99.90
38798;SHT11;24546;52.240;16.826;2022-12-29T07:08:48;9.00;99.90
38798;SHT11;24546;52.240;16.826;2022-12-29T07:13:50;9.00;99.90
38798;SHT11;24546;52.240;16.826;2022-12-29T07:18:51;9.10;99.90
38798;SHT11;24546;52.240;16.826;2022-12-29T07:23:54;9.10;99.90
38798;SHT11;24546;52.240;16.826;2022-12-29T07:28:55;9.10;99.90
38798;SHT11;24546;52.240;16.826;2022-12-29T07:33:56;9.10;99.90
38798;SHT11;24546;52.240;16.826;2022-12-29T07:38:57;9.40;99.90
38798;SHT11;24546;52.240;16.826;2022-12-29T07:43:58;9.30;99.90
38798;SHT11;24546;52.240;16.826;2022-12-29T07:49:19;9.20;99.90
38798;SHT11;24546;52.240;16.826;2022-12-29T07:54:20;9.20;99.90
38798;SHT11;24546;52.240;16.826;2022-12-29T07:59:23;9.30;99.90
38798;SHT11;24546;52.240;16.826;2022-12-29T08:04:24;9.30;99.90
38798;SHT11;24546;52.240;16.826;2022-12-29T08:09:25;9.40;99.90
38798;SHT11;24546;52.240;16.826;2022-12-29T08:14:26;9.40;99.90
38798;SHT11;24546;52.240;16.826;2022-12-29T08:19:27;9.40;99.90
38798;SHT11;24546;52.240;16.826;2022-12-29T08:24:28;9.50;99.90
38798;SHT11;24546;52.240;16.826;2022-12-29T08:29:30;9.50;99.90
38798;SHT11;24546;52.240;16.826;2022-12-29T08:34:32;9.40;99.90
38798;SHT11;24546;52.240;16.826;2022-12-29T08:39:33;9.40;99.90
38798;SHT11;24546;52.240;16.826;2022-12-29T08:44:34;9.60;99.90
38798;SHT11;24546;52.240;16.826;2022-12-29T08:49:35;9.60;99.90
38798;SHT11;24546;52.240;16.826;2022-12-29T08:54:36;9.70;99.90
38798;SHT11;24546;52.240;16.826;2022-12-29T08:59:37;9.70;99.90
38798;SHT11;24546;52.240;16.826;2022-12-29T09:04:38;9.60;99.90
38798;SHT11;24546;52.240;16.826;2022-12-29T09:09:39;9.70;99.90
38798;SHT11;24546;52.240;16.826;2022-12-29T09:14:40;9.80;99.90
38798;SHT11;24546;52.240;16.826;2022-12-29T09:19:43;9.80;99.90
38798;SHT11;24546;52.240;16.826;2022-12-29T09:24:44;9.90;99.90
38798;SHT11;24546;52.240;16.826;2022-12-29T09:29:45;10.00;99.90
38798;SHT11;24546;52.240;16.826;2022-12-29T09:34:46;10.10;99.90
38798;SHT11;24546;52.240;16.826;2022-12-29T09:39:47;10.10;99.90
38798;SHT11;24546;52.240;16.826;2022-12-29T09:45:04;10.30;99.90
38798;SHT11;24546;52.240;16.826;2022-12-29T09:50:30;10.30;99.90
38798;SHT11;24546;52.240;16.826;2022-12-29T09:55:38;10.50;99.90
38798;SHT11;24546;52.240;16.826;2022-12-29T10:01:02;10.80;99.90
38798;SHT11;24546;52.240;16.826;2022-12-29T10:17:41;11.10;99.90
38798;SHT11;24546;52.240;16.826;2022-12-29T10:28:30;11.20;99.90
38798;SHT11;24546;52.240;16.826;2022-12-29T10:33:37;11.30;99.90
38798;SHT11;24546;52.240;16.826;2022-12-29T10:38:48;11.00;99.90
38798;SHT11;24546;52.240;16.826;2022-12-29T10:43:54;11.10;99.90
38798;SHT11;24546;52.240;16.826;2022-12-29T10:48:57;11.20;99.90
38798;SHT11;24546;52.240;16.826;2022-12-29T10:54:05;11.30;99.90
38798;SHT11;24546;52.240;16.826;2022-12-29T10:59:16;11.40;99.90
38798;SHT11;24546;52.240;16.826;2022-12-29T11:09:52;11.60;99.90
38798;SHT11;24546;52.240;16.826;2022-12-29T11:15:20;11.80;99.90
38798;SHT11;24546;52.240;16.826;2022-12-29T11:20:34;11.80;99.90
38798;SHT11;24546;52.240;16.826;2022-12-29T11:25:36;12.00;99.90
38798;SHT11;24546;52.240;16.826;2022-12-29T11:30:37;12.00;99.90
38798;SHT11;24546;52.240;16.826;2022-12-29T11:35:42;12.20;99.90
38798;SHT11;24546;52.240;16.826;2022-12-29T11:40:43;12.10;99.90
38798;SHT11;24546;52.240;16.826;2022-12-29T11:45:46;12.10;99.90
38798;SHT11;24546;52.240;16.826;2022-12-29T11:50:58;12.10;99.90
38798;SHT11;24546;52.240;16.826;2022-12-29T11:56:16;12.20;99.90
38798;SHT11;24546;52.240;16.826;2022-12-29T12:01:36;12.20;99.90
38798;SHT11;24546;52.240;16.826;2022-12-29T12:06:48;12.30;99.90
38798;SHT11;24546;52.240;16.826;2022-12-29T12:11:52;12.20;99.90
38798;SHT11;24546;52.240;16.826;2022-12-29T12:17:12;12.20;99.90
38798;SHT11;24546;52.240;16.826;2022-12-29T12:22:36;12.00;99.90
38798;SHT11;24546;52.240;16.826;2022-12-29T12:33:02;12.20;99.90
38798;SHT11;24546;52.240;16.826;2022-12-29T12:59:01;12.40;99.90
38798;SHT11;24546;52.240;16.826;2022-12-29T13:04:17;12.40;99.90
38798;SHT11;24546;52.240;16.826;2022-12-29T13:19:59;12.40;99.90
38798;SHT11;24546;52.240;16.826;2022-12-29T13:30:15;12.50;99.90
38798;SHT11;24546;52.240;16.826;2022-12-29T13:41:30;12.30;99.90
38798;SHT11;24546;52.240;16.826;2022-12-29T13:46:37;12.30;99.90
38798;SHT11;24546;52.240;16.826;2022-12-29T13:51:48;12.20;99.90
38798;SHT11;24546;52.240;16.826;2022-12-29T14:02:31;12.10;99.90
38798;SHT11;24546;52.240;16.826;2022-12-29T14:07:37;12.20;99.90
38798;SHT11;24546;52.240;16.826;2022-12-29T14:12:43;12.30;99.90
38798;SHT11;24546;52.240;16.826;2022-12-29T14:18:21;12.30;99.90
38798;SHT11;24546;52.240;16.826;2022-12-29T14:23:41;12.20;99.90
38798;SHT11;24546;52.240;16.826;2022-12-29T14:28:47;12.20;99.90
38798;SHT11;24546;52.240;16.826;2022-12-29T14:39:31;12.00;99.90
38798;SHT11;24546;52.240;16.826;2022-12-29T14:44:33;11.90;99.90
38798;SHT11;24546;52.240;16.826;2022-12-29T14:49:41;11.90;99.90
38798;SHT11;24546;52.240;16.826;2022-12-29T14:54:50;11.90;99.90
38798;SHT11;24546;52.240;16.826;2022-12-29T14:59:54;11.80;99.90
38798;SHT11;24546;52.240;16.826;2022-12-29T15:04:59;11.80;99.90
38798;SHT11;24546;52.240;16.826;2022-12-29T15:10:14;11.70;99.90
38798;SHT11;24546;52.240;16.826;2022-12-29T15:15:28;11.70;99.90
38798;SHT11;24546;52.240;16.826;2022-12-29T15:20:31;11.60;99.90
38798;SHT11;24546;52.240;16.826;2022-12-29T15:25:32;11.30;99.90
38798;SHT11;24546;52.240;16.826;2022-12-29T15:30:33;11.30;99.90
38798;SHT11;24546;52.240;16.826;2022-12-29T15:35:36;11.20;99.90
38798;SHT11;24546;52.240;16.826;2022-12-29T15:40:37;11.00;99.90
38798;SHT11;24546;52.240;16.826;2022-12-29T15:45:38;11.00;99.90
38798;SHT11;24546;52.240;16.826;2022-12-29T15:50:40;10.90;99.90
38798;SHT11;24546;52.240;16.826;2022-12-29T15:55:44;10.90;99.90
38798;SHT11;24546;52.240;16.826;2022-12-29T16:00:50;10.80;99.90
38798;SHT11;24546;52.240;16.826;2022-12-29T16:06:10;10.70;99.90
38798;SHT11;24546;52.240;16.826;2022-12-29T16:11:25;10.80;99.90
38798;SHT11;24546;52.240;16.826;2022-12-29T16:16:35;10.70;99.90
38798;SHT11;24546;52.240;16.826;2022-12-29T16:21:46;10.80;99.90
38798;SHT11;24546;52.240;16.826;2022-12-29T16:26:57;10.90;99.90
38798;SHT11;24546;52.240;16.826;2022-12-29T16:32:00;10.90;99.90
38798;SHT11;24546;52.240;16.826;2022-12-29T16:47:43;10.70;99.90
38798;SHT11;24546;52.240;16.826;2022-12-29T16:52:49;10.80;99.90
38798;SHT11;24546;52.240;16.826;2022-12-29T16:57:52;10.70;99.90
38798;SHT11;24546;52.240;16.826;2022-12-29T17:02:58;10.80;99.90
38798;SHT11;24546;52.240;16.826;2022-12-29T17:08:00;10.90;99.90
38798;SHT11;24546;52.240;16.826;2022-12-29T17:13:01;10.90;99.90
38798;SHT11;24546;52.240;16.826;2022-12-29T17:18:03;11.00;99.90
38798;SHT11;24546;52.240;16.826;2022-12-29T17:23:18;11.00;99.90
38798;SHT11;24546;52.240;16.826;2022-12-29T17:28:24;11.10;99.90
38798;SHT11;24546;52.240;16.826;2022-12-29T17:33:35;11.00;99.90
38798;SHT11;24546;52.240;16.826;2022-12-29T17:38:37;11.00;99.90
38798;SHT11;24546;52.240;16.826;2022-12-29T17:43:38;10.90;99.90
38798;SHT11;24546;52.240;16.826;2022-12-29T17:48:39;10.80;99.90
38798;SHT11;24546;52.240;16.826;2022-12-29T17:53:40;10.80;99.90
38798;SHT11;24546;52.240;16.826;2022-12-29T17:58:41;10.70;99.90
38798;SHT11;24546;52.240;16.826;2022-12-29T18:03:43;10.70;99.90
38798;SHT11;24546;52.240;16.826;2022-12-29T18:08:44;10.60;99.90
38798;SHT11;24546;52.240;16.826;2022-12-29T18:13:45;10.40;99.90
38798;SHT11;24546;52.240;16.826;2022-12-29T18:18:46;10.10;99.90
38798;SHT11;24546;52.240;16.826;2022-12-29T18:23:48;9.90;99.90
38798;SHT11;24546;52.240;16.826;2022-12-29T18:28:50;9.90;99.90
38798;SHT11;24546;52.240;16.826;2022-12-29T18:33:52;9.80;99.90
38798;SHT11;24546;52.240;16.826;2022-12-29T18:38:56;9.80;99.90
38798;SHT11;24546;52.240;16.826;2022-12-29T18:43:58;9.90;99.90
38798;SHT11;24546;52.240;16.826;2022-12-29T18:49:05;9.90;99.90
38798;SHT11;24546;52.240;16.826;2022-12-29T18:54:31;9.70;99.90
38798;SHT11;24546;52.240;16.826;2022-12-29T18:59:32;9.90;99.90
38798;SHT11;24546;52.240;16.826;2022-12-29T19:04:34;9.90;99.90
38798;SHT11;24546;52.240;16.826;2022-12-29T19:09:37;9.90;99.90
38798;SHT11;24546;52.240;16.826;2022-12-29T19:14:39;10.10;99.90
38798;SHT11;24546;52.240;16.826;2022-12-29T19:19:40;9.90;99.90
38798;SHT11;24546;52.240;16.826;2022-12-29T19:24:48;10.00;99.90
38798;SHT11;24546;52.240;16.826;2022-12-29T19:29:49;9.80;99.90
38798;SHT11;24546;52.240;16.826;2022-12-29T19:34:50;10.20;99.90
38798;SHT11;24546;52.240;16.826;2022-12-29T19:39:51;10.10;99.90
38798;SHT11;24546;52.240;16.826;2022-12-29T19:44:52;10.20;99.90
38798;SHT11;24546;52.240;16.826;2022-12-29T19:49:57;10.20;99.90
38798;SHT11;24546;52.240;16.826;2022-12-29T19:54:59;10.40;99.90
38798;SHT11;24546;52.240;16.826;2022-12-29T20:00:03;10.40;99.90
38798;SHT11;24546;52.240;16.826;2022-12-29T20:05:12;10.40;99.90
38798;SHT11;24546;52.240;16.826;2022-12-29T20:10:14;10.40;99.90
38798;SHT11;24546;52.240;16.826;2022-12-29T20:15:15;10.30;99.90
38798;SHT11;24546;52.240;16.826;2022-12-29T20:20:19;10.10;99.90
38798;SHT11;24546;52.240;16.826;2022-12-29T20:25:21;10.10;99.90
38798;SHT11;24546;52.240;16.826;2022-12-29T20:30:22;10.00;99.90
38798;SHT11;24546;52.240;16.826;2022-12-29T20:35:25;9.90;99.90
38798;SHT11;24546;52.240;16.826;2022-12-29T20:40:27;9.80;99.90
38798;SHT11;24546;52.240;16.826;2022-12-29T20:45:31;9.60;99.90
38798;SHT11;24546;52.240;16.826;2022-12-29T20:50:33;9.60;99.90
38798;SHT11;24546;52.240;16.826;2022-12-29T20:55:34;9.50;99.90
38798;SHT11;24546;52.240;16.826;2022-12-29T21:00:35;9.40;99.90
38798;SHT11;24546;52.240;16.826;2022-12-29T21:05:37;9.40;99.90
38798;SHT11;24546;52.240;16.826;2022-12-29T21:10:38;9.30;99.90
38798;SHT11;24546;52.240;16.826;2022-12-29T21:15:39;9.30;99.90
38798;SHT11;24546;52.240;16.826;2022-12-29T21:20:40;9.20;99.90
38798;SHT11;24546;52.240;16.826;2022-12-29T21:25:43;9.20;99.90
38798;SHT11;24546;52.240;16.826;2022-12-29T21:30:44;9.20;99.90
38798;SHT11;24546;52.240;16.826;2022-12-29T21:35:46;9.20;99.90
38798;SHT11;24546;52.240;16.826;2022-12-29T21:40:48;9.20;99.90
38798;SHT11;24546;52.240;16.826;2022-12-29T21:45:52;9.20;99.90
38798;SHT11;24546;52.240;16.826;2022-12-29T21:50:55;9.30;99.90
38798;SHT11;24546;52.240;16.826;2022-12-29T21:56:19;9.40;99.90
38798;SHT11;24546;52.240;16.826;2022-12-29T22:01:21;9.30;99.90
38798;SHT11;24546;52.240;16.826;2022-12-29T22:06:41;9.40;99.90
38798;SHT11;24546;52.240;16.826;2022-12-29T22:12:00;9.40;99.90
38798;SHT11;24546;52.240;16.826;2022-12-29T22:17:20;9.40;99.90
38798;SHT11;24546;52.240;16.826;2022-12-29T22:22:21;9.40;99.90
38798;SHT11;24546;52.240;16.826;2022-12-29T22:27:22;9.40;99.90
38798;SHT11;24546;52.240;16.826;2022-12-29T22:32:23;9.40;99.90
38798;SHT11;24546;52.240;16.826;2022-12-29T22:37:24;9.30;99.90
38798;SHT11;24546;52.240;16.826;2022-12-29T22:42:25;9.20;99.90
38798;SHT11;24546;52.240;16.826;2022-12-29T22:47:27;9.30;99.90
38798;SHT11;24546;52.240;16.826;2022-12-29T22:52:28;9.30;99.90
38798;SHT11;24546;52.240;16.826;2022-12-29T22:57:29;9.40;99.90
38798;SHT11;24546;52.240;16.826;2022-12-29T23:02:31;9.40;99.90
38798;SHT11;24546;52.240;16.826;2022-12-29T23:07:33;9.40;99.90
38798;SHT11;24546;52.240;16.826;2022-12-29T23:12:34;9.40;99.90
38798;SHT11;24546;52.240;16.826;2022-12-29T23:17:35;9.40;99.90
38798;SHT11;24546;52.240;16.826;2022-12-29T23:22:36;9.60;99.90
38798;SHT11;24546;52.240;16.826;2022-12-29T23:27:37;9.50;99.90
38798;SHT11;24546;52.240;16.826;2022-12-29T23:32:38;9.50;99.90
38798;SHT11;24546;52.240;16.826;2022-12-29T23:37:39;9.40;99.90
38798;SHT11;24546;52.240;16.826;2022-12-29T23:42:40;9.30;99.90
38798;SHT11;24546;52.240;16.826;2022-12-29T23:47:41;9.20;99.90
38798;SHT11;24546;52.240;16.826;2022-12-29T23:52:42;9.10;99.90
38798;SHT11;24546;52.240;16.826;2022-12-29T23:57:44;9.00;99.90
